Time;durP1;ratioP1;P1;durP2;ratioP2;P2;SDS_P1;SDS_P2;PMS_P1;PMS_P2;Temp;Humidity;BMP_temperature;BMP_pressure;BME280_temperature;BME280_humidity;BME280_pressure;Samples;Min_cycle;Max_cycle;Signal;HPM_P1;HPM_P2
2023/04/20 00:00:35;;;;;;;3.05;2.53;;;;;;;;;;5001606;28;20030;-80
2023/04/20 00:03:02;;;;;;;4.20;2.55;;;;;;;;;;5002107;28;20121;-81
2023/04/20 00:05:28;;;;;;;4.70;2.13;;;;;;;;;;4997850;28;20034;-82
2023/04/20 00:07:54;;;;;;;2.08;1.88;;;;;;;;;;5003647;28;20525;-81
2023/04/20 00:10:19;;;;;;;5.53;2.40;;;;;;;;;;4994670;28;20026;-81
2023/04/20 00:12:44;;;;;;;2.40;2.10;;;;;;;;;;4991175;28;21081;-81
2023/04/20 00:15:10;;;;;;;3.40;2.60;;;;;;;;;;5002735;28;20493;-82
2023/04/20 00:17:37;;;;;;;3.28;2.10;;;;;;;;;;4998887;28;20034;-81
2023/04/20 00:20:03;;;;;;;5.10;2.90;;;;;;;;;;4983400;28;20037;-81
2023/04/20 00:22:29;;;;;;;4.30;2.75;;;;;;;;;;4999218;28;20054;-80
2023/04/20 00:24:55;;;;;;;4.10;3.03;;;;;;;;;;4997654;28;20030;-79
2023/04/20 00:27:20;;;;;;;3.70;2.80;;;;;;;;;;4984028;28;20079;-80
2023/04/20 00:32:19;;;;;;;9.38;3.75;;;;;;;;;;4975479;28;20051;-80
2023/04/20 00:34:45;;;;;;;5.90;2.45;;;;;;;;;;4976902;28;21239;-79
2023/04/20 00:37:10;;;;;;;3.30;2.58;;;;;;;;;;4976254;28;20036;-81
2023/04/20 00:39:35;;;;;;;9.85;3.95;;;;;;;;;;4980677;28;20037;-80
2023/04/20 00:42:05;;;;;;;9.43;5.00;;;;;;;;;;4980966;28;20472;-81
2023/04/20 00:44:31;;;;;;;179.18;52.92;;;;;;;;;;4971129;28;20031;-80
2023/04/20 00:46:56;;;;;;;118.78;34.33;;;;;;;;;;4962326;28;20035;-80
2023/04/20 00:49:27;;;;;;;63.78;20.92;;;;;;;;;;4970307;28;20041;-80
2023/04/20 00:51:52;;;;;;;23.85;10.68;;;;;;;;;;4970032;28;20098;-79
2023/04/20 00:54:18;;;;;;;12.23;5.75;;;;;;;;;;4970999;28;20038;-80
2023/04/20 00:56:43;;;;;;;16.38;6.38;;;;;;;;;;4955434;28;20034;-80
2023/04/20 00:59:09;;;;;;;22.58;8.55;;;;;;;;;;4976646;28;20031;-80
2023/04/20 01:01:34;;;;;;;24.40;8.32;;;;;;;;;;4971043;28;20059;-80
2023/04/20 01:03:59;;;;;;;17.30;5.70;;;;;;;;;;4972063;28;20120;-81
2023/04/20 01:06:26;;;;;;;10.30;5.25;;;;;;;;;;4972541;28;20039;-80
2023/04/20 01:08:52;;;;;;;10.55;4.93;;;;;;;;;;4975783;28;20027;-81
2023/04/20 01:11:17;;;;;;;15.63;6.05;;;;;;;;;;4974974;28;20019;-81
2023/04/20 01:13:43;;;;;;;22.05;7.50;;;;;;;;;;4968748;28;20029;-80
2023/04/20 01:16:08;;;;;;;5.90;3.53;;;;;;;;;;4940825;28;20031;-81
2023/04/20 01:18:47;;;;;;;5.97;3.00;;;;;;;;;;4972707;28;20023;-80
2023/04/20 01:21:13;;;;;;;4.97;2.55;;;;;;;;;;4955446;28;20039;-82
2023/04/20 01:23:39;;;;;;;3.75;2.42;;;;;;;;;;4972953;28;20035;-82
2023/04/20 01:26:12;;;;;;;3.10;2.08;;;;;;;;;;4974893;28;20034;-80
2023/04/20 01:28:37;;;;;;;11.38;5.18;;;;;;;;;;4972798;28;20027;-80
2023/04/20 01:31:04;;;;;;;370.63;112.25;;;;;;;;;;4956220;28;20033;-81
2023/04/20 01:33:29;;;;;;;556.17;200.32;;;;;;;;;;4960974;28;20023;-80
2023/04/20 01:35:55;;;;;;;174.48;54.78;;;;;;;;;;4955714;28;20406;-80
2023/04/20 01:38:21;;;;;;;131.43;38.53;;;;;;;;;;4979125;28;20022;-81
2023/04/20 01:40:47;;;;;;;97.28;29.98;;;;;;;;;;4960909;28;20728;-81
2023/04/20 01:43:13;;;;;;;48.85;15.73;;;;;;;;;;5009744;28;20023;-82
2023/04/20 01:45:39;;;;;;;38.85;13.88;;;;;;;;;;4967658;28;20070;-80
2023/04/20 01:48:04;;;;;;;25.95;8.98;;;;;;;;;;4973259;28;20058;-80
2023/04/20 01:50:30;;;;;;;10.02;4.45;;;;;;;;;;4971732;28;20379;-80
2023/04/20 01:52:55;;;;;;;7.18;3.97;;;;;;;;;;4969911;28;20586;-81
2023/04/20 01:55:20;;;;;;;5.80;3.55;;;;;;;;;;4973599;28;20031;-80
2023/04/20 01:57:46;;;;;;;2.47;2.25;;;;;;;;;;4977745;28;20033;-81
2023/04/20 02:00:12;;;;;;;2.92;2.60;;;;;;;;;;4955844;28;20023;-81
2023/04/20 02:02:37;;;;;;;8.07;2.78;;;;;;;;;;4974848;28;20031;-80
2023/04/20 02:05:03;;;;;;;5.80;3.65;;;;;;;;;;4977319;28;20051;-81
2023/04/20 02:07:29;;;;;;;4.97;3.20;;;;;;;;;;4966856;28;20030;-80
2023/04/20 02:09:54;;;;;;;5.35;3.15;;;;;;;;;;4974387;28;20019;-79
2023/04/20 02:12:19;;;;;;;4.50;3.25;;;;;;;;;;4998671;28;20030;-80
2023/04/20 02:14:45;;;;;;;4.80;2.90;;;;;;;;;;4996461;28;20030;-79
2023/04/20 02:17:10;;;;;;;3.17;2.47;;;;;;;;;;4989234;28;20030;-81
2023/04/20 02:19:35;;;;;;;3.92;3.15;;;;;;;;;;4961699;28;20031;-81
2023/04/20 02:22:01;;;;;;;2.83;2.58;;;;;;;;;;4973113;28;20038;-81
2023/04/20 02:24:26;;;;;;;4.93;3.13;;;;;;;;;;4972920;28;20035;-82
2023/04/20 02:26:51;;;;;;;4.55;3.22;;;;;;;;;;4972684;28;20027;-82
2023/04/20 02:29:17;;;;;;;3.65;2.75;;;;;;;;;;4972023;28;20139;-84
2023/04/20 02:31:43;;;;;;;2.97;2.20;;;;;;;;;;4957103;28;20115;-81
2023/04/20 02:34:09;;;;;;;3.53;2.75;;;;;;;;;;4966964;28;20099;-80
2023/04/20 02:36:35;;;;;;;5.40;2.75;;;;;;;;;;4959149;28;20039;-81
2023/04/20 02:39:00;;;;;;;6.65;3.28;;;;;;;;;;4976585;28;20081;-81
2023/04/20 02:41:25;;;;;;;2.97;2.45;;;;;;;;;;4982290;28;20535;-81
2023/04/20 02:43:51;;;;;;;4.82;3.13;;;;;;;;;;4983225;28;20058;-80
2023/04/20 02:46:17;;;;;;;4.22;2.78;;;;;;;;;;4977083;28;20029;-81
2023/04/20 02:48:42;;;;;;;11.75;3.65;;;;;;;;;;4977739;28;20037;-81
2023/04/20 02:51:08;;;;;;;3.42;2.47;;;;;;;;;;4975242;28;20230;-81
2023/04/20 02:53:33;;;;;;;4.05;3.00;;;;;;;;;;4977867;28;20035;-81
2023/04/20 02:55:59;;;;;;;4.35;2.95;;;;;;;;;;4993293;28;20112;-81
2023/04/20 02:58:24;;;;;;;5.13;2.25;;;;;;;;;;4988101;28;20033;-80
2023/04/20 03:00:50;;;;;;;2.50;2.30;;;;;;;;;;4986362;28;20050;-81
2023/04/20 03:03:18;;;;;;;8.70;2.53;;;;;;;;;;4961665;28;20491;-79
2023/04/20 03:05:44;;;;;;;5.72;2.65;;;;;;;;;;4967171;28;20038;-80
2023/04/20 03:08:09;;;;;;;5.65;2.63;;;;;;;;;;4976631;28;20521;-80
2023/04/20 03:10:34;;;;;;;4.53;3.00;;;;;;;;;;4988087;28;20550;-80
2023/04/20 03:13:00;;;;;;;5.63;2.88;;;;;;;;;;4971776;28;20034;-80
2023/04/20 03:15:25;;;;;;;3.65;2.85;;;;;;;;;;4958859;28;20071;-79
2023/04/20 03:17:51;;;;;;;4.38;2.65;;;;;;;;;;4959287;28;20035;-80
2023/04/20 03:20:16;;;;;;;4.95;2.33;;;;;;;;;;4941030;29;20442;-79
2023/04/20 03:22:42;;;;;;;4.25;2.45;;;;;;;;;;4979168;28;20082;-79
2023/04/20 03:25:08;;;;;;;3.85;2.78;;;;;;;;;;4981762;28;20053;-79
2023/04/20 03:27:33;;;;;;;4.47;2.85;;;;;;;;;;4975829;28;20077;-78
2023/04/20 03:29:59;;;;;;;5.13;3.00;;;;;;;;;;4975141;28;20042;-80
2023/04/20 03:32:25;;;;;;;4.93;2.80;;;;;;;;;;4946094;28;20031;-79
2023/04/20 03:34:50;;;;;;;3.60;3.00;;;;;;;;;;4958332;28;20018;-81
2023/04/20 03:37:16;;;;;;;5.63;2.90;;;;;;;;;;4970012;28;20467;-80
2023/04/20 03:39:41;;;;;;;3.30;2.35;;;;;;;;;;4972354;28;20030;-81
2023/04/20 03:42:06;;;;;;;8.23;3.38;;;;;;;;;;4976473;28;20034;-80
2023/04/20 03:44:32;;;;;;;3.25;2.70;;;;;;;;;;4968048;28;20023;-79
2023/04/20 03:46:57;;;;;;;4.60;2.80;;;;;;;;;;4984184;28;20039;-80
2023/04/20 03:49:24;;;;;;;3.20;2.40;;;;;;;;;;4979626;28;20034;-80
2023/04/20 03:51:49;;;;;;;5.75;3.40;;;;;;;;;;4979956;28;20050;-80
2023/04/20 03:54:15;;;;;;;4.13;3.15;;;;;;;;;;4972047;28;20058;-80
2023/04/20 03:56:40;;;;;;;5.75;2.63;;;;;;;;;;4944348;28;20054;-81
2023/04/20 03:59:05;;;;;;;4.00;3.20;;;;;;;;;;4980521;28;20066;-81
2023/04/20 04:01:31;;;;;;;3.38;2.70;;;;;;;;;;4945808;28;20035;-80
2023/04/20 04:03:56;;;;;;;4.90;3.08;;;;;;;;;;4973208;28;20514;-81
2023/04/20 04:06:22;;;;;;;4.55;3.22;;;;;;;;;;4969947;28;20034;-81
2023/04/20 04:08:47;;;;;;;3.03;2.50;;;;;;;;;;4950996;28;20026;-80
2023/04/20 04:11:12;;;;;;;7.13;3.30;;;;;;;;;;4971317;28;20031;-79
2023/04/20 04:13:38;;;;;;;5.22;3.58;;;;;;;;;;4972405;28;20027;-81
2023/04/20 04:16:03;;;;;;;4.65;2.85;;;;;;;;;;4970350;28;20038;-81
2023/04/20 04:18:31;;;;;;;6.15;3.33;;;;;;;;;;4974064;28;20030;-81
2023/04/20 04:20:57;;;;;;;5.80;3.28;;;;;;;;;;4958225;28;20023;-81
2023/04/20 04:23:22;;;;;;;6.38;3.38;;;;;;;;;;4957916;28;20031;-81
2023/04/20 04:25:48;;;;;;;3.40;3.08;;;;;;;;;;4949228;28;20034;-81
2023/04/20 04:28:13;;;;;;;4.05;3.13;;;;;;;;;;4960412;28;20023;-81
2023/04/20 04:30:39;;;;;;;6.78;3.13;;;;;;;;;;4970055;28;20523;-80
2023/04/20 04:33:05;;;;;;;5.60;3.92;;;;;;;;;;4972316;28;20026;-80
2023/04/20 04:35:32;;;;;;;3.00;2.70;;;;;;;;;;4961460;28;20843;-80
2023/04/20 04:37:57;;;;;;;3.45;2.90;;;;;;;;;;4962546;28;20023;-80
2023/04/20 04:40:23;;;;;;;8.20;4.10;;;;;;;;;;4971328;28;20089;-80
2023/04/20 04:42:48;;;;;;;6.32;3.70;;;;;;;;;;4983558;28;20046;-81
2023/04/20 04:45:13;;;;;;;6.00;2.85;;;;;;;;;;4971547;28;20538;-80
2023/04/20 04:47:42;;;;;;;5.32;2.88;;;;;;;;;;4971225;28;20487;-81
2023/04/20 04:50:09;;;;;;;4.25;3.05;;;;;;;;;;4975228;28;20026;-81
2023/04/20 04:52:35;;;;;;;8.00;4.00;;;;;;;;;;4959648;28;20019;-80
2023/04/20 04:55:01;;;;;;;4.72;3.15;;;;;;;;;;4967836;28;20602;-80
2023/04/20 04:57:26;;;;;;;4.97;3.60;;;;;;;;;;4984428;23;20502;-81
2023/04/20 04:59:52;;;;;;;11.80;3.42;;;;;;;;;;5014376;28;20045;-81
2023/04/20 05:02:17;;;;;;;7.40;4.22;;;;;;;;;;5011691;28;20042;-81
2023/04/20 05:04:43;;;;;;;6.43;3.72;;;;;;;;;;5010782;28;20030;-80
2023/04/20 05:07:12;;;;;;;7.88;3.60;;;;;;;;;;5021131;28;20044;-81
2023/04/20 05:09:38;;;;;;;5.85;3.42;;;;;;;;;;4993372;28;20482;-80
2023/04/20 05:12:03;;;;;;;6.15;3.65;;;;;;;;;;4990235;28;20046;-81
2023/04/20 05:14:30;;;;;;;4.68;3.50;;;;;;;;;;4995140;28;20129;-80
2023/04/20 05:16:57;;;;;;;11.68;3.78;;;;;;;;;;4996436;28;20045;-80
2023/04/20 05:19:23;;;;;;;4.93;3.08;;;;;;;;;;4991682;28;20470;-81
2023/04/20 05:21:48;;;;;;;8.57;4.00;;;;;;;;;;4985185;28;20029;-81
2023/04/20 05:24:13;;;;;;;9.35;4.20;;;;;;;;;;4987171;28;20030;-80
2023/04/20 05:26:39;;;;;;;4.30;2.95;;;;;;;;;;4997778;28;20037;-81
2023/04/20 05:29:04;;;;;;;5.75;4.00;;;;;;;;;;4997888;28;20524;-81
2023/04/20 05:31:32;;;;;;;5.93;3.78;;;;;;;;;;4991033;28;20464;-80
2023/04/20 05:33:58;;;;;;;5.78;3.45;;;;;;;;;;4993770;28;20030;-80
2023/04/20 05:36:23;;;;;;;6.70;3.97;;;;;;;;;;4999347;28;20050;-80
2023/04/20 05:38:48;;;;;;;4.60;3.78;;;;;;;;;;4991997;28;20026;-81
2023/04/20 05:41:14;;;;;;;6.97;3.63;;;;;;;;;;4989205;28;20081;-79
2023/04/20 05:43:39;;;;;;;5.63;3.85;;;;;;;;;;4996815;28;20090;-81
2023/04/20 05:46:05;;;;;;;8.93;4.75;;;;;;;;;;4998853;28;20165;-80
2023/04/20 05:48:30;;;;;;;6.88;4.10;;;;;;;;;;4998833;28;20037;-81
2023/04/20 05:50:56;;;;;;;5.80;3.42;;;;;;;;;;4994225;28;20030;-80
2023/04/20 05:53:21;;;;;;;16.30;4.53;;;;;;;;;;4999482;28;20463;-80
2023/04/20 05:55:56;;;;;;;9.02;5.05;;;;;;;;;;5009240;28;20117;-81
2023/04/20 05:58:21;;;;;;;5.57;4.35;;;;;;;;;;5005579;28;20057;-81
2023/04/20 06:00:47;;;;;;;6.55;4.07;;;;;;;;;;5002268;28;20434;-80
2023/04/20 06:03:12;;;;;;;5.35;3.70;;;;;;;;;;4995005;28;20026;-81
2023/04/20 06:05:37;;;;;;;7.63;4.50;;;;;;;;;;4994433;28;20057;-81
2023/04/20 06:08:03;;;;;;;5.88;3.72;;;;;;;;;;5006080;28;20086;-81
2023/04/20 06:10:31;;;;;;;5.03;3.92;;;;;;;;;;4996605;28;20514;-81
2023/04/20 06:12:56;;;;;;;8.50;4.35;;;;;;;;;;4991848;28;20033;-80
2023/04/20 06:15:22;;;;;;;6.13;4.40;;;;;;;;;;5005081;28;20034;-80
2023/04/20 06:17:47;;;;;;;10.20;4.03;;;;;;;;;;4998373;28;20026;-79
2023/04/20 06:20:12;;;;;;;6.13;3.88;;;;;;;;;;4992909;28;20042;-80
2023/04/20 06:22:45;;;;;;;8.50;4.57;;;;;;;;;;4995826;28;20034;-82
2023/04/20 06:25:12;;;;;;;9.80;4.28;;;;;;;;;;5001187;28;20014;-81
2023/04/20 06:27:37;;;;;;;6.57;4.28;;;;;;;;;;4991592;28;20034;-81
2023/04/20 06:30:03;;;;;;;8.18;4.13;;;;;;;;;;4989096;28;20421;-80
2023/04/20 06:32:29;;;;;;;8.13;4.35;;;;;;;;;;5003503;28;20376;-82
2023/04/20 06:34:55;;;;;;;7.72;3.95;;;;;;;;;;5015742;28;20060;-80
2023/04/20 06:37:20;;;;;;;7.35;3.55;;;;;;;;;;4995741;28;20029;-81
2023/04/20 06:39:45;;;;;;;5.40;3.85;;;;;;;;;;5001825;28;20022;-81
2023/04/20 06:42:11;;;;;;;5.45;3.45;;;;;;;;;;4994136;28;20041;-81
2023/04/20 06:44:36;;;;;;;4.80;3.83;;;;;;;;;;4988973;28;20031;-82
2023/04/20 06:47:01;;;;;;;6.60;4.03;;;;;;;;;;4992740;28;20100;-84
2023/04/20 06:49:27;;;;;;;6.97;3.70;;;;;;;;;;5017655;28;20041;-83
2023/04/20 06:51:52;;;;;;;6.78;3.65;;;;;;;;;;5002120;28;20037;-84
2023/04/20 06:54:17;;;;;;;6.10;3.63;;;;;;;;;;4991196;28;20459;-83
2023/04/20 06:56:42;;;;;;;5.65;3.40;;;;;;;;;;4996039;28;20030;-83
2023/04/20 06:59:08;;;;;;;6.13;3.75;;;;;;;;;;5029065;28;20033;-83
2023/04/20 07:01:33;;;;;;;6.30;3.67;;;;;;;;;;5017162;28;20029;-84
2023/04/20 07:03:58;;;;;;;8.05;4.05;;;;;;;;;;5028876;28;20025;-83
2023/04/20 07:06:24;;;;;;;5.97;4.00;;;;;;;;;;5015781;28;20083;-83
2023/04/20 07:08:49;;;;;;;7.22;3.80;;;;;;;;;;5023434;28;20095;-85
2023/04/20 07:11:15;;;;;;;8.75;3.45;;;;;;;;;;5001833;28;20036;-82
2023/04/20 07:13:40;;;;;;;3.92;3.30;;;;;;;;;;5016992;28;20040;-82
2023/04/20 07:16:06;;;;;;;4.80;3.40;;;;;;;;;;5025764;28;20035;-82
2023/04/20 07:18:31;;;;;;;5.00;3.70;;;;;;;;;;5027088;28;20025;-83
2023/04/20 07:20:56;;;;;;;7.47;3.75;;;;;;;;;;5016452;28;20025;-83
2023/04/20 07:23:22;;;;;;;5.40;3.30;;;;;;;;;;5010571;28;20109;-81
2023/04/20 07:25:47;;;;;;;5.63;3.60;;;;;;;;;;5021203;28;20024;-81
2023/04/20 07:28:13;;;;;;;5.57;3.40;;;;;;;;;;5025946;28;20029;-84
2023/04/20 07:30:41;;;;;;;6.28;4.25;;;;;;;;;;5022594;28;20028;-83
2023/04/20 07:33:07;;;;;;;4.30;3.35;;;;;;;;;;5013080;28;20109;-86
2023/04/20 07:35:32;;;;;;;13.38;4.10;;;;;;;;;;5025949;28;20025;-84
2023/04/20 07:37:58;;;;;;;7.20;3.60;;;;;;;;;;5026418;28;20029;-83
2023/04/20 07:40:23;;;;;;;9.88;3.40;;;;;;;;;;5027135;28;20026;-84
2023/04/20 07:42:48;;;;;;;6.53;3.92;;;;;;;;;;5015414;28;20079;-84
2023/04/20 07:45:14;;;;;;;8.13;3.65;;;;;;;;;;5025845;28;20452;-82
2023/04/20 07:47:50;;;;;;;4.72;3.25;;;;;;;;;;5008579;28;20030;-82
2023/04/20 07:50:16;;;;;;;7.50;3.42;;;;;;;;;;5001697;28;20029;-84
2023/04/20 07:52:43;;;;;;;9.05;4.28;;;;;;;;;;5017127;28;20117;-83
2023/04/20 07:55:10;;;;;;;6.70;4.40;;;;;;;;;;5032875;28;20048;-82
2023/04/20 07:57:38;;;;;;;6.05;3.88;;;;;;;;;;5012705;28;20017;-83
2023/04/20 08:00:08;;;;;;;6.53;3.90;;;;;;;;;;5003588;28;20057;-83
2023/04/20 08:02:34;;;;;;;9.95;4.18;;;;;;;;;;5017221;28;20113;-84
2023/04/20 08:05:01;;;;;;;6.65;4.00;;;;;;;;;;5000761;28;20053;-82
2023/04/20 08:07:27;;;;;;;7.07;4.30;;;;;;;;;;5018058;28;20040;-82
2023/04/20 08:09:52;;;;;;;6.28;4.05;;;;;;;;;;5015825;28;20053;-83
2023/04/20 08:12:17;;;;;;;4.75;3.60;;;;;;;;;;5009402;28;20077;-83
2023/04/20 08:14:43;;;;;;;10.77;3.95;;;;;;;;;;5015664;28;20021;-83
2023/04/20 08:17:11;;;;;;;16.90;4.80;;;;;;;;;;5006746;28;20034;-83
2023/04/20 08:19:36;;;;;;;6.53;4.40;;;;;;;;;;5009089;28;20049;-83
2023/04/20 08:22:01;;;;;;;8.95;4.53;;;;;;;;;;5010580;28;20034;-82
2023/04/20 08:24:27;;;;;;;7.18;4.40;;;;;;;;;;5030304;28;20010;-82
2023/04/20 08:26:52;;;;;;;8.10;3.63;;;;;;;;;;5020033;28;20021;-81
2023/04/20 08:29:17;;;;;;;8.63;3.95;;;;;;;;;;5035569;28;20085;-81
2023/04/20 08:31:43;;;;;;;5.28;4.13;;;;;;;;;;5014240;28;20064;-81
2023/04/20 08:34:08;;;;;;;7.03;4.10;;;;;;;;;;5022600;28;20026;-83
2023/04/20 08:36:33;;;;;;;8.25;3.90;;;;;;;;;;5025138;28;20030;-80
2023/04/20 08:39:06;;;;;;;7.10;4.00;;;;;;;;;;5023240;28;20022;-81
2023/04/20 08:41:31;;;;;;;8.40;4.13;;;;;;;;;;5007233;28;20374;-80
2023/04/20 08:43:57;;;;;;;8.10;4.45;;;;;;;;;;5016398;28;20104;-82
2023/04/20 08:46:23;;;;;;;6.70;4.13;;;;;;;;;;5020370;28;20528;-81
2023/04/20 08:48:49;;;;;;;5.65;3.95;;;;;;;;;;5018173;28;20021;-82
2023/04/20 08:51:16;;;;;;;10.90;4.53;;;;;;;;;;5012796;28;20034;-83
2023/04/20 08:53:42;;;;;;;6.97;4.00;;;;;;;;;;5009793;28;20026;-81
2023/04/20 08:56:07;;;;;;;12.43;4.28;;;;;;;;;;5017261;28;20034;-82
2023/04/20 08:58:33;;;;;;;7.38;4.20;;;;;;;;;;5032799;28;20032;-82
2023/04/20 09:00:59;;;;;;;6.45;4.28;;;;;;;;;;5019267;28;20021;-81
2023/04/20 09:03:33;;;;;;;11.05;4.38;;;;;;;;;;5012494;28;20115;-81
2023/04/20 09:05:58;;;;;;;10.68;4.65;;;;;;;;;;5029541;28;20036;-81
2023/04/20 09:08:35;;;;;;;6.60;4.68;;;;;;;;;;5020113;28;20037;-82
2023/04/20 09:11:00;;;;;;;6.47;4.07;;;;;;;;;;5009905;28;20505;-81
2023/04/20 09:13:26;;;;;;;6.57;3.92;;;;;;;;;;5008072;28;20026;-81
2023/04/20 09:15:54;;;;;;;6.88;4.55;;;;;;;;;;5021041;28;20182;-82
2023/04/20 09:18:20;;;;;;;7.90;4.20;;;;;;;;;;5030700;28;20029;-83
2023/04/20 09:20:45;;;;;;;6.80;4.25;;;;;;;;;;5020268;28;20055;-80
2023/04/20 09:23:15;;;;;;;8.48;4.57;;;;;;;;;;5017112;28;20034;-81
2023/04/20 09:25:42;;;;;;;6.43;4.32;;;;;;;;;;5027361;28;20450;-81
2023/04/20 09:28:08;;;;;;;5.38;3.55;;;;;;;;;;5015874;28;20565;-81
2023/04/20 09:30:44;;;;;;;7.32;4.28;;;;;;;;;;5005665;28;20021;-82
2023/04/20 09:33:11;;;;;;;10.65;3.90;;;;;;;;;;4996385;28;20030;-81
2023/04/20 09:35:41;;;;;;;8.88;4.07;;;;;;;;;;5010221;28;20058;-80
2023/04/20 09:38:07;;;;;;;6.82;4.32;;;;;;;;;;5026331;28;20047;-80
2023/04/20 09:40:33;;;;;;;10.18;4.32;;;;;;;;;;5028954;28;20465;-79
2023/04/20 09:43:05;;;;;;;10.77;4.25;;;;;;;;;;5009816;28;20030;-82
2023/04/20 09:45:31;;;;;;;7.68;4.60;;;;;;;;;;4997709;28;20044;-79
2023/04/20 09:48:07;;;;;;;7.80;4.32;;;;;;;;;;5015284;28;20545;-78
2023/04/20 09:50:36;;;;;;;11.73;4.45;;;;;;;;;;5012152;28;20026;-79
2023/04/20 09:53:02;;;;;;;7.90;4.22;;;;;;;;;;4995923;28;20033;-79
2023/04/20 09:55:32;;;;;;;7.35;4.43;;;;;;;;;;5015447;28;20033;-82
2023/04/20 09:57:58;;;;;;;9.85;4.25;;;;;;;;;;5017909;28;20033;-81
2023/04/20 10:00:23;;;;;;;5.72;3.80;;;;;;;;;;5019021;28;20022;-79
2023/04/20 10:02:50;;;;;;;8.52;4.45;;;;;;;;;;5022673;28;20053;-79
2023/04/20 10:05:15;;;;;;;7.13;4.70;;;;;;;;;;5007095;28;20053;-80
2023/04/20 10:07:41;;;;;;;6.03;4.47;;;;;;;;;;5020906;28;20470;-82
2023/04/20 10:10:12;;;;;;;7.40;4.40;;;;;;;;;;5013811;28;20026;-82
2023/04/20 10:12:50;;;;;;;6.53;4.45;;;;;;;;;;5007010;28;20034;-82
2023/04/20 10:15:16;;;;;;;7.13;4.28;;;;;;;;;;4999387;28;20030;-82
2023/04/20 10:17:42;;;;;;;7.90;4.13;;;;;;;;;;5017634;28;20072;-82
2023/04/20 10:20:25;;;;;;;6.75;3.90;;;;;;;;;;5017621;28;20037;-82
2023/04/20 10:22:52;;;;;;;7.53;3.70;;;;;;;;;;5012316;28;20053;-82
2023/04/20 10:25:25;;;;;;;7.68;4.15;;;;;;;;;;5004394;28;20021;-81
2023/04/20 10:27:54;;;;;;;8.63;4.28;;;;;;;;;;5022073;28;20055;-82
2023/04/20 10:30:20;;;;;;;7.32;4.63;;;;;;;;;;5015650;28;20036;-82
2023/04/20 10:32:46;;;;;;;8.25;4.55;;;;;;;;;;5017109;28;20026;-81
2023/04/20 10:35:13;;;;;;;12.15;4.68;;;;;;;;;;5022751;28;20519;-81
2023/04/20 10:37:49;;;;;;;12.35;4.68;;;;;;;;;;5020575;28;20018;-81
2023/04/20 10:40:15;;;;;;;7.55;4.03;;;;;;;;;;5022403;28;20028;-80
2023/04/20 10:42:42;;;;;;;6.38;4.45;;;;;;;;;;5013821;28;20033;-82
2023/04/20 10:45:09;;;;;;;6.85;4.13;;;;;;;;;;5018122;28;20034;-80
2023/04/20 10:47:36;;;;;;;8.52;4.90;;;;;;;;;;5025480;28;20021;-81
2023/04/20 10:50:12;;;;;;;9.05;4.00;;;;;;;;;;5019552;28;20489;-81
2023/04/20 10:52:39;;;;;;;6.97;3.92;;;;;;;;;;5007790;28;20029;-81
2023/04/20 10:55:16;;;;;;;7.97;4.22;;;;;;;;;;5022011;28;20101;-81
2023/04/20 10:57:44;;;;;;;5.38;3.75;;;;;;;;;;5013796;28;20038;-81
2023/04/20 11:00:23;;;;;;;6.22;4.80;;;;;;;;;;5014217;28;20084;-81
2023/04/20 11:02:55;;;;;;;6.72;4.13;;;;;;;;;;5011365;28;20489;-81
2023/04/20 11:05:23;;;;;;;6.35;3.20;;;;;;;;;;5018579;28;20033;-80
2023/04/20 11:07:56;;;;;;;4.45;2.80;;;;;;;;;;5018661;28;20076;-81
2023/04/20 11:10:36;;;;;;;6.00;3.60;;;;;;;;;;5013105;28;20040;-80
2023/04/20 11:13:02;;;;;;;3.92;3.22;;;;;;;;;;5013236;28;20034;-82
2023/04/20 11:15:31;;;;;;;5.32;3.28;;;;;;;;;;5016324;28;20029;-82
2023/04/20 11:18:06;;;;;;;5.00;3.47;;;;;;;;;;4992818;28;20045;-81
2023/04/20 11:20:31;;;;;;;3.90;2.90;;;;;;;;;;5010578;28;20061;-84
2023/04/20 11:22:58;;;;;;;5.90;3.75;;;;;;;;;;5016354;28;20065;-83
2023/04/20 11:25:24;;;;;;;7.03;3.85;;;;;;;;;;5034154;28;20017;-81
2023/04/20 11:27:49;;;;;;;4.20;3.10;;;;;;;;;;5009281;28;20028;-81
2023/04/20 11:30:14;;;;;;;5.55;3.55;;;;;;;;;;5016761;28;20042;-82
2023/04/20 11:32:40;;;;;;;10.38;3.90;;;;;;;;;;5007621;28;20127;-82
2023/04/20 11:35:08;;;;;;;7.95;3.80;;;;;;;;;;5014747;28;20092;-83
2023/04/20 11:37:49;;;;;;;6.03;3.70;;;;;;;;;;5014671;28;20026;-82
2023/04/20 11:40:16;;;;;;;5.47;4.07;;;;;;;;;;5013388;28;20033;-82
2023/04/20 11:42:41;;;;;;;6.00;4.22;;;;;;;;;;5008932;28;20033;-83
2023/04/20 11:45:07;;;;;;;6.80;4.00;;;;;;;;;;5016345;28;20022;-84
2023/04/20 11:47:33;;;;;;;6.72;4.43;;;;;;;;;;5019696;28;20068;-83
2023/04/20 11:49:58;;;;;;;7.47;4.05;;;;;;;;;;5017708;28;20468;-84
2023/04/20 11:52:23;;;;;;;6.60;4.20;;;;;;;;;;5005125;28;20025;-82
2023/04/20 11:54:49;;;;;;;5.60;4.07;;;;;;;;;;5019821;28;20037;-82
2023/04/20 11:57:15;;;;;;;7.13;4.50;;;;;;;;;;5028063;28;20029;-82
2023/04/20 11:59:41;;;;;;;6.53;3.88;;;;;;;;;;5022570;28;20026;-82
2023/04/20 12:02:08;;;;;;;7.80;4.38;;;;;;;;;;5003339;28;20045;-81
2023/04/20 12:04:33;;;;;;;6.53;4.30;;;;;;;;;;5003481;28;20026;-83
2023/04/20 12:07:00;;;;;;;8.02;4.28;;;;;;;;;;5024993;28;20105;-83
2023/04/20 12:09:26;;;;;;;8.25;5.13;;;;;;;;;;5004703;28;20021;-82
2023/04/20 12:11:51;;;;;;;6.78;4.22;;;;;;;;;;5014757;28;20036;-83
2023/04/20 12:14:17;;;;;;;5.20;3.70;;;;;;;;;;5017694;28;20026;-83
2023/04/20 12:16:42;;;;;;;12.00;4.50;;;;;;;;;;5017546;28;20088;-82
2023/04/20 12:19:08;;;;;;;7.80;4.95;;;;;;;;;;5020399;28;20041;-83
2023/04/20 12:21:34;;;;;;;6.25;4.40;;;;;;;;;;5011423;28;20052;-82
2023/04/20 12:23:59;;;;;;;7.97;4.80;;;;;;;;;;5018522;28;20034;-83
2023/04/20 12:26:25;;;;;;;7.50;4.50;;;;;;;;;;5020868;28;20048;-83
2023/04/20 12:28:51;;;;;;;6.57;4.55;;;;;;;;;;5003093;28;20117;-83
2023/04/20 12:31:16;;;;;;;7.50;4.18;;;;;;;;;;5017282;28;20057;-83
2023/04/20 12:33:42;;;;;;;6.15;4.45;;;;;;;;;;5017650;28;20440;-83
2023/04/20 12:36:08;;;;;;;9.73;4.50;;;;;;;;;;5017533;28;20029;-83
2023/04/20 12:38:33;;;;;;;8.98;4.55;;;;;;;;;;5016166;28;20026;-83
2023/04/20 12:40:58;;;;;;;6.80;4.53;;;;;;;;;;5005913;28;20098;-83
2023/04/20 12:43:24;;;;;;;7.50;5.05;;;;;;;;;;5012951;28;20022;-84
2023/04/20 12:45:49;;;;;;;7.30;4.95;;;;;;;;;;5016126;28;20018;-84
2023/04/20 12:48:15;;;;;;;7.38;4.95;;;;;;;;;;5014900;28;20030;-84
2023/04/20 12:50:41;;;;;;;8.30;5.28;;;;;;;;;;5032282;28;20508;-84
2023/04/20 12:53:06;;;;;;;6.90;4.43;;;;;;;;;;5006315;28;20125;-84
2023/04/20 12:55:32;;;;;;;11.00;5.45;;;;;;;;;;4998886;28;20114;-82
2023/04/20 12:57:57;;;;;;;7.15;5.25;;;;;;;;;;5027621;28;20508;-83
2023/04/20 13:00:23;;;;;;;7.10;4.55;;;;;;;;;;5010461;28;20030;-84
2023/04/20 13:02:49;;;;;;;6.10;4.63;;;;;;;;;;5013671;28;20029;-85
2023/04/20 13:05:14;;;;;;;6.43;4.57;;;;;;;;;;5016420;28;20033;-84
2023/04/20 13:07:40;;;;;;;9.35;4.72;;;;;;;;;;5008518;28;20022;-84
2023/04/20 13:10:05;;;;;;;8.27;4.75;;;;;;;;;;4997635;28;20029;-84
2023/04/20 13:12:31;;;;;;;6.03;4.22;;;;;;;;;;5015237;28;20026;-80
2023/04/20 13:14:56;;;;;;;9.30;4.60;;;;;;;;;;5008688;28;20034;-82
2023/04/20 13:17:22;;;;;;;6.32;4.07;;;;;;;;;;5009313;28;20061;-83
2023/04/20 13:19:48;;;;;;;6.20;4.20;;;;;;;;;;5012150;28;20397;-81
2023/04/20 13:22:15;;;;;;;8.00;3.35;;;;;;;;;;5016794;28;20033;-82
2023/04/20 13:24:40;;;;;;;6.60;3.28;;;;;;;;;;5015076;28;20028;-82
2023/04/20 13:27:06;;;;;;;5.15;3.22;;;;;;;;;;5016724;28;20053;-82
2023/04/20 13:29:31;;;;;;;5.13;3.65;;;;;;;;;;5016776;28;20064;-80
2023/04/20 13:31:56;;;;;;;4.68;3.15;;;;;;;;;;4989514;28;20042;-82
2023/04/20 13:34:22;;;;;;;4.22;3.20;;;;;;;;;;4995306;28;20061;-82
2023/04/20 13:36:48;;;;;;;8.05;4.75;;;;;;;;;;4996152;28;20027;-82
2023/04/20 13:39:14;;;;;;;4.13;2.83;;;;;;;;;;4995118;28;20048;-81
2023/04/20 13:41:39;;;;;;;4.05;2.80;;;;;;;;;;4995537;28;20022;-81
2023/04/20 13:44:06;;;;;;;7.93;3.38;;;;;;;;;;4994753;28;20026;-81
2023/04/20 13:46:32;;;;;;;5.18;3.63;;;;;;;;;;5005674;28;20038;-82
2023/04/20 13:48:57;;;;;;;6.32;3.63;;;;;;;;;;5010360;28;20037;-81
2023/04/20 13:51:23;;;;;;;5.28;3.78;;;;;;;;;;5016812;28;20028;-81
2023/04/20 13:53:48;;;;;;;6.68;3.40;;;;;;;;;;5018014;28;20030;-81
2023/04/20 13:56:15;;;;;;;4.60;3.58;;;;;;;;;;5019454;28;20032;-81
2023/04/20 13:58:41;;;;;;;5.63;3.70;;;;;;;;;;5027716;28;20026;-81
2023/04/20 14:01:10;;;;;;;4.90;3.78;;;;;;;;;;5018354;28;20044;-81
2023/04/20 14:03:36;;;;;;;3.67;2.75;;;;;;;;;;4997868;28;20022;-80
2023/04/20 14:06:02;;;;;;;5.13;3.45;;;;;;;;;;5018423;28;20108;-80
2023/04/20 14:08:27;;;;;;;5.70;3.50;;;;;;;;;;5017239;28;20023;-81
2023/04/20 14:10:53;;;;;;;4.93;3.20;;;;;;;;;;5019303;28;20033;-79
2023/04/20 14:13:18;;;;;;;4.25;3.47;;;;;;;;;;4998261;28;20033;-80
2023/04/20 14:15:44;;;;;;;6.72;3.72;;;;;;;;;;5020775;28;20025;-79
2023/04/20 14:18:09;;;;;;;6.05;4.00;;;;;;;;;;5017478;28;20060;-81
2023/04/20 14:20:34;;;;;;;5.22;3.85;;;;;;;;;;5013587;28;20053;-80
2023/04/20 14:23:00;;;;;;;5.63;3.45;;;;;;;;;;5012836;28;20109;-80
2023/04/20 14:25:25;;;;;;;4.85;3.20;;;;;;;;;;5015809;28;20029;-81
2023/04/20 14:27:50;;;;;;;4.75;3.45;;;;;;;;;;5017359;28;20037;-80
2023/04/20 14:30:16;;;;;;;3.97;3.33;;;;;;;;;;5010533;28;20026;-80
2023/04/20 14:32:54;;;;;;;5.38;3.78;;;;;;;;;;5013138;28;20036;-80
2023/04/20 14:35:20;;;;;;;3.22;2.42;;;;;;;;;;5049577;28;20417;-80
2023/04/20 14:37:46;;;;;;;4.60;3.03;;;;;;;;;;5018494;28;20018;-80